Terminal Aerodrome Forecast
Issued by NWS

Home | Current Version | Previous Version | Text Only | Print | Product List | Glossary On
Versions: 1 2 3 4 5 6 7 8 9 10 11 12 13 14 15 16
000
FTUS45 KABQ 190900 AAA
TAFFMN
TAF AMD
KFMN 190903Z 1909/2006 VRB03KT P6SM SKC
     FM191000 VRB03KT 4SM BR SCT005 BKN030
      TEMPO 1910/1913 VRB03KT 1/4SM FG VV004
     FM191600 25005KT P6SM FEW150
     FM192100 28009KT P6SM SCT150=

USA.gov is the U.S. government's official web portal to all federal, state and local government web resources and services.